Time;durP1;ratioP1;P1;durP2;ratioP2;P2;SDS_P1;SDS_P2;PMS_P1;PMS_P2;Temp;Humidity;BMP_temperature;BMP_pressure;BME280_temperature;BME280_humidity;BME280_pressure;Samples;Min_cycle;Max_cycle;Signal;HPM_P1;HPM_P2
2022/12/10 00:01:32;;;;;;;6.43;4.80;;;2.60;99.90;;;;;;5033006;28;20286;-85
2022/12/10 00:03:58;;;;;;;5.30;4.80;;;2.70;99.90;;;;;;4999508;28;20227;-85
2022/12/10 00:06:27;;;;;;;6.73;3.37;;;2.60;99.90;;;;;;5001344;28;20239;-85
2022/12/10 00:08:53;;;;;;;8.93;6.67;;;2.60;99.90;;;;;;4999713;28;20769;-85
2022/12/10 00:11:21;;;;;;;7.53;4.80;;;2.60;99.90;;;;;;4999428;28;20548;-85
2022/12/10 00:13:48;;;;;;;5.50;4.20;;;2.50;99.90;;;;;;4999808;28;20196;-86
2022/12/10 00:16:15;;;;;;;10.30;5.87;;;2.50;99.90;;;;;;5014624;28;20202;-86
2022/12/10 00:18:41;;;;;;;7.33;4.80;;;2.60;99.90;;;;;;5001295;28;20290;-86
2022/12/10 00:21:12;;;;;;;4.93;3.13;;;2.60;99.90;;;;;;4999886;28;20232;-86
2022/12/10 00:23:39;;;;;;;2.93;2.83;;;2.70;99.90;;;;;;5006462;28;20222;-86
2022/12/10 00:26:10;;;;;;;9.40;6.80;;;2.70;99.90;;;;;;4999810;28;20222;-85
2022/12/10 00:28:37;;;;;;;3.47;2.43;;;2.70;99.90;;;;;;5000748;28;20235;-84
2022/12/10 00:31:05;;;;;;;6.67;5.90;;;2.70;99.90;;;;;;5001780;28;20825;-85
2022/12/10 00:33:31;;;;;;;5.50;5.03;;;2.80;99.90;;;;;;4999824;28;20216;-85
2022/12/10 00:36:00;;;;;;;16.67;7.87;;;2.80;99.90;;;;;;5013901;28;20227;-85
2022/12/10 00:38:26;;;;;;;5.57;5.10;;;2.80;99.90;;;;;;4997945;28;20228;-85
2022/12/10 00:40:52;;;;;;;5.63;5.20;;;2.90;99.90;;;;;;5000202;28;20191;-85
2022/12/10 00:43:17;;;;;;;17.07;6.70;;;2.80;99.90;;;;;;5014805;28;20191;-86
2022/12/10 00:45:43;;;;;;;10.80;7.33;;;2.80;99.90;;;;;;5030593;28;20224;-85
2022/12/10 00:48:09;;;;;;;5.63;5.10;;;2.90;99.90;;;;;;5014706;28;20227;-85
2022/12/10 00:50:34;;;;;;;5.47;4.93;;;2.90;99.90;;;;;;4997641;28;20245;-85
2022/12/10 00:53:00;;;;;;;8.83;5.27;;;2.90;99.90;;;;;;5015409;28;21218;-86
2022/12/10 00:55:26;;;;;;;12.73;5.53;;;2.90;99.90;;;;;;5014126;28;20561;-85
2022/12/10 00:57:51;;;;;;;10.93;9.20;;;2.90;99.90;;;;;;5030433;28;20231;-86
2022/12/10 01:00:18;;;;;;;6.70;4.77;;;2.90;99.90;;;;;;5014317;28;20239;-86
2022/12/10 01:02:44;;;;;;;12.30;10.30;;;2.90;99.90;;;;;;5014887;28;20286;-85
2022/12/10 01:05:10;;;;;;;6.13;5.53;;;2.90;99.90;;;;;;5000635;28;20230;-86
2022/12/10 01:07:35;;;;;;;9.80;5.97;;;2.90;99.90;;;;;;4998311;28;20226;-85
2022/12/10 01:10:02;;;;;;;10.40;6.07;;;2.90;99.90;;;;;;5014714;28;20226;-86
2022/12/10 01:12:28;;;;;;;5.97;5.47;;;2.80;99.90;;;;;;5023127;28;20219;-85
2022/12/10 01:14:53;;;;;;;11.30;5.10;;;2.70;99.90;;;;;;4998471;28;20223;-85
2022/12/10 01:17:21;;;;;;;6.70;6.27;;;2.70;99.90;;;;;;4997199;28;20977;-85
2022/12/10 01:19:47;;;;;;;9.17;6.93;;;2.70;99.90;;;;;;4998797;28;20745;-85
2022/12/10 01:22:13;;;;;;;4.93;4.57;;;2.70;99.90;;;;;;4999979;28;20269;-85
2022/12/10 01:24:38;;;;;;;8.77;5.53;;;2.60;99.90;;;;;;4998014;28;20997;-85
2022/12/10 01:27:04;;;;;;;9.53;4.93;;;2.60;99.90;;;;;;4997941;28;20219;-85
2022/12/10 01:29:30;;;;;;;5.53;5.13;;;2.50;99.90;;;;;;5030194;28;20219;-85
2022/12/10 01:31:57;;;;;;;5.90;5.23;;;2.40;99.90;;;;;;4999079;28;20398;-84
2022/12/10 01:34:23;;;;;;;7.83;6.17;;;2.40;99.90;;;;;;5029716;28;20563;-84
2022/12/10 01:36:51;;;;;;;9.53;5.57;;;2.40;99.90;;;;;;4997999;28;20223;-86
2022/12/10 01:39:18;;;;;;;4.97;2.93;;;2.40;99.90;;;;;;5004580;28;20240;-87
2022/12/10 01:41:56;;;;;;;2.90;2.70;;;2.40;99.90;;;;;;5013037;28;20313;-86
2022/12/10 01:44:22;;;;;;;5.80;5.47;;;2.50;99.90;;;;;;4997768;28;20215;-86
2022/12/10 01:46:53;;;;;;;5.27;4.00;;;2.30;99.90;;;;;;5029406;28;20187;-85
2022/12/10 01:49:25;;;;;;;16.93;5.93;;;2.40;99.90;;;;;;5000508;28;20180;-86
2022/12/10 01:51:55;;;;;;;6.57;5.97;;;2.50;99.90;;;;;;4998250;28;20223;-85
2022/12/10 01:54:33;;;;;;;10.60;8.77;;;2.50;99.90;;;;;;4998603;28;20634;-86
2022/12/10 01:57:02;;;;;;;4.97;4.57;;;2.60;99.90;;;;;;5021700;28;20219;-84
2022/12/10 01:59:29;;;;;;;5.97;5.57;;;2.60;99.90;;;;;;4997582;28;20298;-85
2022/12/10 02:02:16;;;;;;;7.43;4.10;;;2.60;99.90;;;;;;4995925;28;20199;-85
2022/12/10 02:04:59;;;;;;;10.13;6.10;;;2.70;99.90;;;;;;4999046;28;20238;-84
2022/12/10 02:07:39;;;;;;;16.07;4.43;;;2.70;99.90;;;;;;4999126;28;20234;-84
2022/12/10 02:10:41;;;;;;;7.50;5.90;;;2.60;99.90;;;;;;4998330;28;20262;-84
2022/12/10 02:13:18;;;;;;;6.77;6.17;;;2.60;99.90;;;;;;4996787;28;20645;-84
2022/12/10 02:16:01;;;;;;;7.90;5.97;;;2.60;99.90;;;;;;4998384;28;20234;-86
2022/12/10 02:18:34;;;;;;;11.47;5.93;;;2.60;99.90;;;;;;4996350;28;20219;-86
2022/12/10 02:21:08;;;;;;;5.17;4.70;;;2.60;99.90;;;;;;4997543;28;20230;-85
2022/12/10 02:23:39;;;;;;;8.53;7.13;;;2.50;99.90;;;;;;5019650;28;20257;-86
2022/12/10 02:26:11;;;;;;;14.73;7.40;;;2.60;99.90;;;;;;5029034;28;20215;-85
2022/12/10 02:28:54;;;;;;;7.20;6.27;;;2.50;99.90;;;;;;4997943;28;20188;-84
2022/12/10 02:31:26;;;;;;;7.47;6.90;;;2.60;99.90;;;;;;5010811;28;20705;-87
2022/12/10 02:33:58;;;;;;;9.10;8.17;;;2.60;99.90;;;;;;4996572;28;20322;-84
2022/12/10 02:36:26;;;;;;;9.77;4.67;;;2.60;99.90;;;;;;4998579;28;20238;-85
2022/12/10 02:38:55;;;;;;;6.70;5.40;;;2.50;99.90;;;;;;5028406;28;20239;-86
2022/12/10 02:41:45;;;;;;;5.07;4.60;;;2.50;99.90;;;;;;5019994;28;20226;-86
2022/12/10 02:44:14;;;;;;;3.47;3.27;;;2.50;99.90;;;;;;4996746;28;20311;-86
2022/12/10 02:46:42;;;;;;;13.03;6.50;;;2.50;99.90;;;;;;4996894;28;20207;-86
2022/12/10 02:49:11;;;;;;;7.40;6.70;;;2.50;99.90;;;;;;4996442;28;20227;-86
2022/12/10 02:51:37;;;;;;;4.30;3.83;;;2.50;99.90;;;;;;4996952;28;20227;-86
2022/12/10 02:54:05;;;;;;;5.07;4.67;;;2.50;99.90;;;;;;5011890;28;20262;-86
2022/12/10 02:56:41;;;;;;;9.37;7.10;;;2.60;99.90;;;;;;4997391;28;20219;-86
2022/12/10 02:59:26;;;;;;;10.20;7.23;;;2.50;99.90;;;;;;4993604;28;20239;-84
2022/12/10 03:02:27;;;;;;;6.80;4.87;;;2.50;99.90;;;;;;4999067;28;20210;-85
2022/12/10 03:05:09;;;;;;;8.87;7.03;;;2.50;99.90;;;;;;4982804;28;20877;-86
2022/12/10 03:07:53;;;;;;;4.87;4.57;;;2.50;99.90;;;;;;5009503;28;20640;-86
2022/12/10 03:10:37;;;;;;;12.60;6.57;;;2.50;99.90;;;;;;5027421;28;20327;-84
2022/12/10 03:13:07;;;;;;;5.47;4.97;;;2.40;99.90;;;;;;4996607;28;20220;-84
2022/12/10 03:15:37;;;;;;;7.77;7.13;;;2.40;99.90;;;;;;4994812;28;20212;-85
2022/12/10 03:18:04;;;;;;;4.67;4.07;;;2.40;99.90;;;;;;4997524;28;20547;-87
2022/12/10 03:20:33;;;;;;;7.27;6.83;;;2.40;99.90;;;;;;4997476;28;20719;-86
2022/12/10 03:23:01;;;;;;;7.03;6.57;;;2.40;99.90;;;;;;4997217;28;20223;-84
2022/12/10 03:25:30;;;;;;;10.17;5.93;;;2.40;99.90;;;;;;4998912;28;20184;-85
2022/12/10 03:27:58;;;;;;;4.83;4.43;;;2.40;99.90;;;;;;5013870;28;20300;-84
2022/12/10 03:30:24;;;;;;;11.27;3.90;;;2.40;99.90;;;;;;4995866;28;20966;-84
2022/12/10 03:32:51;;;;;;;11.07;4.23;;;2.40;99.90;;;;;;4995564;28;20262;-84
2022/12/10 03:35:18;;;;;;;8.00;5.97;;;2.30;99.90;;;;;;5019852;28;20215;-85
2022/12/10 03:37:44;;;;;;;5.33;4.83;;;2.20;99.90;;;;;;4996718;28;20424;-86
2022/12/10 03:40:12;;;;;;;9.27;4.80;;;2.20;99.90;;;;;;5036898;28;20229;-86
2022/12/10 03:42:38;;;;;;;4.80;4.40;;;2.20;99.90;;;;;;5028701;28;20231;-85
2022/12/10 03:45:04;;;;;;;6.03;3.53;;;2.20;99.90;;;;;;4998183;28;20228;-86
2022/12/10 03:47:30;;;;;;;3.90;3.20;;;2.20;99.90;;;;;;4995965;28;20215;-86
2022/12/10 03:49:56;;;;;;;4.63;4.13;;;2.00;99.90;;;;;;4995293;28;20653;-86
2022/12/10 03:52:22;;;;;;;5.83;3.50;;;2.00;99.90;;;;;;4995045;28;20195;-85
2022/12/10 03:54:47;;;;;;;10.83;5.57;;;2.00;99.90;;;;;;4993991;28;20254;-85
2022/12/10 03:57:14;;;;;;;11.20;4.47;;;2.00;99.90;;;;;;5002928;28;20254;-83
2022/12/10 03:59:39;;;;;;;4.73;4.33;;;2.10;99.90;;;;;;5024564;28;20330;-85
2022/12/10 04:02:08;;;;;;;1.30;1.30;;;2.10;99.90;;;;;;4979935;28;20401;-84
2022/12/10 04:04:34;;;;;;;3.17;2.70;;;2.00;99.90;;;;;;5020503;28;20215;-84
2022/12/10 04:07:00;;;;;;;2.53;2.33;;;2.10;99.90;;;;;;5032009;28;20219;-85
2022/12/10 04:09:25;;;;;;;3.77;3.57;;;2.10;99.90;;;;;;4999378;28;20255;-84
2022/12/10 04:11:56;;;;;;;3.67;3.47;;;2.10;99.90;;;;;;5015181;28;20251;-84
2022/12/10 04:17:07;;;;;;;4.03;3.73;;;2.20;99.90;;;;;;4999065;28;20583;-84
2022/12/10 04:19:32;;;;;;;3.57;3.47;;;2.20;99.90;;;;;;5023240;28;20222;-84
2022/12/10 04:27:33;;;;;;;3.87;1.93;;;2.20;99.90;;;;;;5013365;28;20311;-84
2022/12/10 04:29:59;;;;;;;4.00;2.67;;;2.10;99.90;;;;;;4998496;28;20231;-84
2022/12/10 04:32:27;;;;;;;2.57;2.37;;;2.10;99.90;;;;;;5015157;28;20225;-86
2022/12/10 04:34:53;;;;;;;3.47;3.27;;;2.10;99.90;;;;;;4999341;28;20183;-85
2022/12/10 04:37:20;;;;;;;4.07;3.73;;;2.20;99.90;;;;;;4999265;28;20198;-85
2022/12/10 04:39:46;;;;;;;3.63;3.13;;;2.20;99.90;;;;;;4998173;28;20247;-87
2022/12/10 04:42:13;;;;;;;3.07;2.87;;;2.20;99.90;;;;;;5006552;28;20227;-84
2022/12/10 04:44:38;;;;;;;2.30;2.10;;;2.20;99.90;;;;;;5016653;28;20215;-84
2022/12/10 04:47:07;;;;;;;3.87;3.60;;;2.20;99.90;;;;;;5000466;28;20219;-85
2022/12/10 04:49:33;;;;;;;2.73;2.63;;;2.20;99.90;;;;;;5001971;28;20195;-86
2022/12/10 04:51:59;;;;;;;2.70;2.50;;;2.20;99.90;;;;;;5015719;28;20219;-87
2022/12/10 04:54:25;;;;;;;2.40;2.30;;;2.10;99.90;;;;;;5000582;28;20238;-84
2022/12/10 04:56:51;;;;;;;4.33;3.67;;;2.10;99.90;;;;;;4999324;28;20224;-84
2022/12/10 04:59:17;;;;;;;1.60;1.03;;;2.10;99.90;;;;;;5030753;28;21058;-84
2022/12/10 05:01:43;;;;;;;5.83;2.77;;;2.10;99.90;;;;;;4995811;28;20370;-84
2022/12/10 05:04:12;;;;;;;3.50;3.23;;;2.00;99.90;;;;;;4999285;28;20653;-84
2022/12/10 05:06:38;;;;;;;8.57;3.33;;;2.00;99.90;;;;;;5000144;28;20302;-84
2022/12/10 05:09:04;;;;;;;2.87;2.67;;;2.00;99.90;;;;;;4996771;28;20669;-85
2022/12/10 05:11:31;;;;;;;17.30;1.87;;;2.00;99.90;;;;;;4998711;28;20223;-84
2022/12/10 05:13:58;;;;;;;5.40;4.00;;;1.90;99.90;;;;;;4998743;28;20990;-86
2022/12/10 05:16:26;;;;;;;1.90;1.83;;;1.90;99.90;;;;;;5014856;28;20224;-86
2022/12/10 05:18:53;;;;;;;2.07;1.97;;;2.00;99.90;;;;;;5030744;28;20235;-85
2022/12/10 05:21:20;;;;;;;2.77;2.57;;;2.00;99.90;;;;;;4997444;28;20220;-86
2022/12/10 05:23:49;;;;;;;2.47;1.33;;;2.00;99.90;;;;;;5005336;28;20246;-86
2022/12/10 05:26:17;;;;;;;1.87;1.73;;;2.00;99.90;;;;;;4998103;28;20225;-86
2022/12/10 05:28:48;;;;;;;4.27;2.30;;;2.00;99.90;;;;;;5030009;28;20704;-86
2022/12/10 05:31:17;;;;;;;2.77;2.63;;;1.90;99.90;;;;;;5013886;28;20527;-85
2022/12/10 05:33:43;;;;;;;2.07;1.97;;;1.90;99.90;;;;;;4998112;28;20315;-86
2022/12/10 05:36:11;;;;;;;3.07;2.07;;;1.90;99.90;;;;;;5014670;28;20301;-86
2022/12/10 05:38:38;;;;;;;7.73;3.20;;;1.80;99.90;;;;;;4999990;28;20764;-86
2022/12/10 05:41:11;;;;;;;2.30;1.90;;;1.90;99.90;;;;;;4997550;28;20223;-86
2022/12/10 05:43:37;;;;;;;1.67;1.37;;;1.90;99.90;;;;;;4998900;28;20270;-86
2022/12/10 05:46:06;;;;;;;2.80;1.87;;;1.80;99.90;;;;;;5013597;28;20219;-86
2022/12/10 05:48:33;;;;;;;1.37;1.30;;;1.90;99.90;;;;;;4997263;28;20707;-86
2022/12/10 05:51:06;;;;;;;2.57;2.37;;;1.80;99.90;;;;;;4999393;28;20220;-86
2022/12/10 05:53:32;;;;;;;1.60;1.60;;;1.80;99.90;;;;;;5029831;28;20446;-86
2022/12/10 05:56:07;;;;;;;7.00;3.43;;;1.80;99.90;;;;;;4998490;28;20696;-86
2022/12/10 05:58:34;;;;;;;1.80;1.70;;;1.90;99.90;;;;;;4999143;28;20737;-86
2022/12/10 06:01:05;;;;;;;3.67;3.40;;;1.90;99.90;;;;;;5012986;28;21160;-86
2022/12/10 06:03:31;;;;;;;5.20;2.63;;;1.90;99.90;;;;;;4996941;28;20310;-86
2022/12/10 06:05:57;;;;;;;3.23;3.03;;;2.00;99.90;;;;;;5021586;28;20224;-86
2022/12/10 06:08:22;;;;;;;6.33;2.90;;;2.00;99.90;;;;;;5021805;28;20281;-86
2022/12/10 06:10:48;;;;;;;3.90;3.03;;;2.00;99.90;;;;;;5029729;28;20703;-86
2022/12/10 06:13:14;;;;;;;3.57;3.27;;;2.00;99.90;;;;;;5015869;28;20223;-87
2022/12/10 06:15:41;;;;;;;2.17;1.97;;;2.00;99.90;;;;;;5031275;28;20226;-83
2022/12/10 06:18:07;;;;;;;2.47;2.27;;;2.00;99.90;;;;;;4996425;28;20211;-86
2022/12/10 06:20:33;;;;;;;1.73;1.67;;;1.90;99.90;;;;;;4997454;28;20723;-86
2022/12/10 06:22:59;;;;;;;2.20;2.10;;;2.00;99.90;;;;;;4998612;28;20229;-86
2022/12/10 06:25:25;;;;;;;3.47;3.30;;;2.00;99.90;;;;;;4996952;28;20192;-86
2022/12/10 06:27:50;;;;;;;2.30;2.13;;;2.00;99.90;;;;;;4996319;28;20219;-85
2022/12/10 06:30:16;;;;;;;4.63;3.10;;;2.00;99.90;;;;;;5020291;28;20697;-85
2022/12/10 06:32:42;;;;;;;3.13;2.93;;;2.00;99.90;;;;;;4997728;28;20592;-86
2022/12/10 06:35:09;;;;;;;2.30;2.20;;;2.00;99.90;;;;;;5028869;28;20223;-85
2022/12/10 06:37:35;;;;;;;2.10;1.83;;;1.90;99.90;;;;;;4996783;28;20191;-86
2022/12/10 06:40:01;;;;;;;3.50;2.30;;;1.90;99.90;;;;;;5029614;28;20716;-86
2022/12/10 06:42:27;;;;;;;2.53;1.30;;;1.90;99.90;;;;;;5012639;28;20609;-86
2022/12/10 06:44:53;;;;;;;3.43;3.00;;;1.80;99.90;;;;;;4997049;28;20214;-86
2022/12/10 06:47:18;;;;;;;2.50;2.30;;;1.90;99.90;;;;;;4996300;28;20712;-85
2022/12/10 06:49:44;;;;;;;1.90;1.50;;;1.80;99.90;;;;;;5004530;28;20195;-85
2022/12/10 06:52:10;;;;;;;6.17;4.13;;;1.80;99.90;;;;;;4995153;28;20192;-87
2022/12/10 06:54:36;;;;;;;2.27;2.17;;;1.80;99.90;;;;;;5011876;28;20220;-86
2022/12/10 06:57:02;;;;;;;1.53;1.43;;;1.80;99.90;;;;;;4996488;28;20226;-86
2022/12/10 06:59:28;;;;;;;5.60;1.80;;;1.80;99.90;;;;;;4996651;28;20784;-84
2022/12/10 07:01:53;;;;;;;5.47;2.57;;;1.90;99.90;;;;;;4991880;28;20330;-85
2022/12/10 07:04:19;;;;;;;6.53;2.53;;;1.90;99.90;;;;;;5013100;28;20589;-86
2022/12/10 07:06:45;;;;;;;3.03;2.70;;;1.90;99.90;;;;;;4996097;28;20223;-86
2022/12/10 07:09:11;;;;;;;1.87;1.77;;;1.90;99.90;;;;;;5011681;28;20313;-85
2022/12/10 07:11:37;;;;;;;3.60;2.87;;;1.90;99.90;;;;;;4995393;28;20224;-85
2022/12/10 07:14:03;;;;;;;7.53;3.17;;;1.90;99.90;;;;;;4995529;28;20219;-86
2022/12/10 07:16:31;;;;;;;2.83;1.67;;;1.80;99.90;;;;;;4994566;28;20319;-86
2022/12/10 07:18:58;;;;;;;4.90;3.37;;;1.90;99.90;;;;;;4993688;28;20234;-86
2022/12/10 07:21:33;;;;;;;1.47;1.37;;;1.90;99.90;;;;;;4995644;28;20768;-85
2022/12/10 07:24:25;;;;;;;3.63;3.33;;;1.90;99.90;;;;;;4994699;28;20238;-87
2022/12/10 07:26:52;;;;;;;7.13;2.77;;;1.90;99.90;;;;;;5025605;28;20261;-85
2022/12/10 07:29:21;;;;;;;2.13;2.00;;;2.00;99.90;;;;;;5012667;28;20598;-86
2022/12/10 07:31:48;;;;;;;2.20;2.00;;;2.00;99.90;;;;;;5028995;28;20620;-86
2022/12/10 07:34:14;;;;;;;3.33;2.90;;;2.00;99.90;;;;;;4995440;28;20319;-84
2022/12/10 07:36:41;;;;;;;3.43;3.00;;;2.00;99.90;;;;;;4986153;28;20587;-85
2022/12/10 07:39:09;;;;;;;4.20;3.83;;;2.00;99.90;;;;;;5013991;28;20242;-85
2022/12/10 07:41:35;;;;;;;2.10;1.97;;;2.00;99.90;;;;;;5022061;28;20677;-86
2022/12/10 07:44:03;;;;;;;5.33;3.53;;;2.00;99.90;;;;;;5007668;28;20226;-88
2022/12/10 07:46:31;;;;;;;1.50;1.50;;;2.00;99.90;;;;;;5002418;28;20184;-85
2022/12/10 07:49:00;;;;;;;2.73;2.53;;;2.00;99.90;;;;;;5024573;28;20223;-87
2022/12/10 07:51:25;;;;;;;3.00;2.83;;;2.00;99.90;;;;;;5006676;28;20726;-85
2022/12/10 07:53:53;;;;;;;2.10;2.00;;;2.00;99.90;;;;;;5015551;28;20312;-85
2022/12/10 07:56:19;;;;;;;8.10;3.53;;;2.00;99.90;;;;;;5011994;28;20216;-85
2022/12/10 07:58:45;;;;;;;3.37;3.17;;;2.10;99.90;;;;;;5006873;28;21149;-88
2022/12/10 08:01:18;;;;;;;2.27;2.07;;;2.10;99.90;;;;;;5000198;28;20269;-84
2022/12/10 08:03:44;;;;;;;4.80;4.47;;;2.10;99.90;;;;;;5024921;28;21000;-88
2022/12/10 08:06:13;;;;;;;3.23;2.33;;;2.10;99.90;;;;;;5001248;28;20268;-86
2022/12/10 08:08:40;;;;;;;4.30;3.60;;;2.00;99.90;;;;;;5000899;28;20281;-86
2022/12/10 08:11:07;;;;;;;3.23;3.03;;;2.00;99.90;;;;;;5012961;28;20239;-88
2022/12/10 08:13:34;;;;;;;2.27;2.17;;;2.10;99.90;;;;;;4999214;28;20184;-88
2022/12/10 08:16:22;;;;;;;2.20;2.07;;;2.00;99.90;;;;;;4999991;28;20216;-86
2022/12/10 08:18:49;;;;;;;1.80;1.73;;;2.10;99.90;;;;;;5014133;28;20227;-87
2022/12/10 08:21:17;;;;;;;6.50;2.87;;;2.10;99.90;;;;;;4997118;28;20223;-88
2022/12/10 08:23:43;;;;;;;2.40;2.30;;;2.10;99.90;;;;;;4998504;28;20223;-90
2022/12/10 08:26:15;;;;;;;4.03;3.73;;;2.20;99.90;;;;;;4998498;28;20220;-87
2022/12/10 08:28:41;;;;;;;5.20;4.73;;;2.20;99.90;;;;;;4996111;28;20187;-87
2022/12/10 08:31:09;;;;;;;1.33;1.33;;;2.30;99.90;;;;;;4996305;28;21175;-87
2022/12/10 08:33:36;;;;;;;1.93;1.83;;;2.30;99.90;;;;;;5026977;28;20220;-87
2022/12/10 08:36:03;;;;;;;3.97;3.63;;;2.30;99.90;;;;;;4996469;28;20226;-90
2022/12/10 08:38:29;;;;;;;3.13;2.43;;;2.30;99.90;;;;;;4997692;28;20901;-86
2022/12/10 08:40:55;;;;;;;3.30;2.03;;;2.40;99.90;;;;;;4998221;28;20662;-88
2022/12/10 08:43:20;;;;;;;2.73;2.10;;;2.40;99.90;;;;;;5011118;28;20199;-87
2022/12/10 08:45:46;;;;;;;6.53;6.03;;;2.40;99.90;;;;;;4997329;28;20685;-89
2022/12/10 08:48:12;;;;;;;4.17;3.97;;;2.40;99.90;;;;;;4995589;28;20258;-88
2022/12/10 08:50:38;;;;;;;2.47;2.30;;;2.30;99.90;;;;;;5032176;28;20225;-85
2022/12/10 08:53:04;;;;;;;2.23;2.07;;;2.40;99.90;;;;;;4990780;28;20223;-87
2022/12/10 08:55:30;;;;;;;11.23;1.97;;;2.40;99.90;;;;;;4977951;28;20206;-88
2022/12/10 08:57:57;;;;;;;1.93;1.73;;;2.50;99.90;;;;;;4975877;28;20217;-87
2022/12/10 09:00:23;;;;;;;7.40;4.47;;;2.40;99.90;;;;;;4979914;28;20278;-87
2022/12/10 09:02:49;;;;;;;5.30;4.13;;;2.50;99.90;;;;;;4979549;28;20359;-85
2022/12/10 09:05:15;;;;;;;5.97;5.13;;;2.50;99.90;;;;;;5011146;28;20223;-84
2022/12/10 09:07:40;;;;;;;8.23;5.77;;;2.60;99.90;;;;;;4993436;28;20180;-88
2022/12/10 09:10:06;;;;;;;3.10;3.00;;;2.60;99.90;;;;;;5012389;28;21045;-85
2022/12/10 09:12:35;;;;;;;3.13;2.73;;;2.60;99.90;;;;;;4996550;28;20220;-89
2022/12/10 09:15:01;;;;;;;3.47;2.57;;;2.70;99.90;;;;;;5009118;28;20219;-81
2022/12/10 09:17:26;;;;;;;17.67;4.33;;;2.70;99.90;;;;;;5025550;28;20249;-87
2022/12/10 09:19:52;;;;;;;4.03;3.30;;;2.80;99.90;;;;;;4995222;28;20589;-88
2022/12/10 09:22:18;;;;;;;2.90;2.70;;;2.60;99.90;;;;;;5011254;28;20685;-83
2022/12/10 09:24:44;;;;;;;2.00;1.90;;;2.50;99.90;;;;;;4993469;28;20593;-85
2022/12/10 09:27:09;;;;;;;2.87;2.67;;;2.60;99.90;;;;;;5011620;28;20258;-86
2022/12/10 09:29:35;;;;;;;2.60;1.67;;;2.60;99.90;;;;;;5012992;28;20215;-88
2022/12/10 09:32:01;;;;;;;10.03;3.40;;;2.60;99.90;;;;;;4993353;28;20259;-86
2022/12/10 09:34:26;;;;;;;3.53;2.63;;;2.70;99.90;;;;;;5009241;28;20192;-85
2022/12/10 09:36:52;;;;;;;5.23;4.33;;;2.60;99.90;;;;;;4995224;28;20588;-88
2022/12/10 09:39:18;;;;;;;8.13;3.80;;;2.80;99.90;;;;;;5010679;28;20250;-86
2022/12/10 09:41:58;;;;;;;3.50;3.23;;;2.80;99.90;;;;;;5011479;28;20650;-88
2022/12/10 09:44:52;;;;;;;2.83;2.73;;;2.80;99.90;;;;;;4993755;28;20795;-86
2022/12/10 09:47:18;;;;;;;3.50;3.00;;;2.80;99.90;;;;;;4996223;28;20861;-85
2022/12/10 09:49:47;;;;;;;2.57;2.47;;;2.90;99.90;;;;;;4993724;28;20200;-84
2022/12/10 09:52:17;;;;;;;5.30;4.63;;;3.00;99.90;;;;;;4993966;28;20195;-85
2022/12/10 09:54:48;;;;;;;5.87;2.63;;;3.00;99.90;;;;;;4995153;28;20227;-86
2022/12/10 09:57:38;;;;;;;3.57;2.40;;;3.10;99.90;;;;;;4994370;28;20749;-85
2022/12/10 10:00:38;;;;;;;6.47;4.40;;;3.10;99.90;;;;;;4992157;28;20236;-84
2022/12/10 10:03:07;;;;;;;2.93;2.77;;;3.10;99.90;;;;;;5022198;28;20453;-84
2022/12/10 10:05:38;;;;;;;1.90;1.70;;;3.20;99.90;;;;;;4995879;28;20669;-83
2022/12/10 10:08:11;;;;;;;6.27;3.23;;;3.20;99.90;;;;;;4998659;28;20227;-84
2022/12/10 10:10:40;;;;;;;3.97;3.77;;;3.20;99.90;;;;;;5021272;28;20270;-85
2022/12/10 10:13:08;;;;;;;3.27;2.73;;;3.10;99.90;;;;;;4995854;28;20760;-85
2022/12/10 10:15:41;;;;;;;6.23;4.00;;;3.10;99.90;;;;;;4998483;28;21001;-85
2022/12/10 10:18:16;;;;;;;3.63;3.27;;;3.20;99.90;;;;;;4998280;28;20219;-85
2022/12/10 10:20:42;;;;;;;4.93;4.13;;;3.20;99.90;;;;;;4997948;28;20261;-84
2022/12/10 10:23:12;;;;;;;3.03;2.83;;;3.30;99.90;;;;;;5012428;28;20699;-84
2022/12/10 10:25:38;;;;;;;3.43;3.23;;;3.30;99.90;;;;;;5011491;28;20187;-84
2022/12/10 10:28:04;;;;;;;3.20;2.90;;;3.30;99.90;;;;;;5012131;28;20228;-86
2022/12/10 10:30:29;;;;;;;13.67;6.30;;;3.30;99.90;;;;;;4996339;28;20258;-87
2022/12/10 10:32:57;;;;;;;6.70;4.63;;;3.30;99.90;;;;;;5011215;28;20301;-85
2022/12/10 10:35:33;;;;;;;3.77;3.40;;;3.30;99.90;;;;;;4997439;28;20234;-83
2022/12/10 10:38:07;;;;;;;8.30;3.83;;;3.30;99.90;;;;;;4998756;28;20216;-85
2022/12/10 10:40:43;;;;;;;14.73;4.73;;;3.30;99.90;;;;;;4997851;28;20200;-81
2022/12/10 10:43:39;;;;;;;5.03;4.63;;;3.40;99.90;;;;;;4996787;28;20735;-84
2022/12/10 10:46:15;;;;;;;3.17;2.87;;;3.30;99.90;;;;;;4997578;28;20742;-82
2022/12/10 10:48:40;;;;;;;5.70;3.23;;;3.30;99.90;;;;;;4998878;28;20242;-84
2022/12/10 10:51:12;;;;;;;14.37;2.63;;;3.20;99.90;;;;;;4998310;28;20258;-87
2022/12/10 10:53:47;;;;;;;0.77;0.77;;;3.20;99.90;;;;;;5033087;28;20619;-84
2022/12/10 10:56:16;;;;;;;9.00;4.23;;;3.10;99.90;;;;;;4998661;28;20257;-85
2022/12/10 10:59:03;;;;;;;5.70;5.20;;;3.10;99.90;;;;;;5000733;28;20218;-84
2022/12/10 11:01:50;;;;;;;11.67;5.13;;;3.20;99.90;;;;;;4994018;28;20752;-85
2022/12/10 11:04:50;;;;;;;5.83;5.43;;;3.20;99.90;;;;;;4998352;28;21006;-85
2022/12/10 11:07:32;;;;;;;6.80;3.23;;;3.20;99.90;;;;;;4995661;28;20215;-86
2022/12/10 11:09:58;;;;;;;2.67;2.57;;;3.10;99.90;;;;;;4999068;28;20233;-84
2022/12/10 11:12:36;;;;;;;8.47;4.87;;;3.20;99.90;;;;;;5016059;28;20285;-84
2022/12/10 11:15:28;;;;;;;7.53;5.60;;;3.40;99.90;;;;;;5003425;28;20223;-83
2022/12/10 11:17:55;;;;;;;5.37;4.87;;;3.40;99.90;;;;;;5004473;28;20231;-82
2022/12/10 11:20:33;;;;;;;2.73;2.63;;;3.30;99.90;;;;;;5001718;28;20230;-88
2022/12/10 11:23:01;;;;;;;1.67;1.67;;;3.30;99.90;;;;;;5002224;28;20227;-84
2022/12/10 11:25:45;;;;;;;3.07;2.43;;;3.30;99.90;;;;;;5000846;28;20264;-85
2022/12/10 11:28:32;;;;;;;4.43;4.00;;;3.30;99.90;;;;;;5030926;28;20295;-84
2022/12/10 11:31:24;;;;;;;3.73;3.43;;;3.30;99.90;;;;;;5030807;28;20685;-87
2022/12/10 11:33:52;;;;;;;2.40;2.30;;;3.30;99.90;;;;;;5022563;28;20697;-87
2022/12/10 11:36:35;;;;;;;2.40;2.30;;;3.40;99.90;;;;;;5000000;28;20330;-85
2022/12/10 11:39:26;;;;;;;8.93;3.13;;;3.30;99.90;;;;;;4999792;28;20242;-85
2022/12/10 11:42:02;;;;;;;4.13;3.13;;;3.30;99.90;;;;;;5024724;28;20224;-85
2022/12/10 11:45:13;;;;;;;4.27;3.90;;;3.20;99.90;;;;;;5034152;28;20223;-85
2022/12/10 11:47:44;;;;;;;2.30;2.07;;;3.30;99.90;;;;;;4979752;28;20224;-86
2022/12/10 11:50:25;;;;;;;3.77;3.47;;;3.40;99.90;;;;;;4981146;28;20311;-84
2022/12/10 11:53:23;;;;;;;12.93;4.83;;;3.40;99.90;;;;;;5005273;28;20195;-85
2022/12/10 11:56:26;;;;;;;1.90;1.80;;;3.30;99.90;;;;;;5002894;28;20635;-86
2022/12/10 11:59:27;;;;;;;11.83;4.77;;;3.40;99.90;;;;;;4997550;28;20355;-87
2022/12/10 12:01:58;;;;;;;5.40;2.97;;;3.40;99.90;;;;;;4997763;28;20243;-86
2022/12/10 12:04:29;;;;;;;2.43;2.23;;;3.40;99.90;;;;;;5013091;28;20665;-85
2022/12/10 12:07:16;;;;;;;4.53;4.13;;;3.40;99.90;;;;;;4981572;28;20227;-85
2022/12/10 12:09:57;;;;;;;4.87;4.50;;;3.50;99.90;;;;;;5011910;28;20287;-86
2022/12/10 12:12:40;;;;;;;5.73;3.27;;;3.50;99.90;;;;;;5018141;28;20230;-88
2022/12/10 12:15:15;;;;;;;7.77;4.77;;;3.60;99.90;;;;;;4999605;28;20227;-86
2022/12/10 12:17:53;;;;;;;5.27;3.97;;;3.60;99.90;;;;;;5033326;28;20235;-89
2022/12/10 12:20:29;;;;;;;6.00;4.13;;;3.60;99.90;;;;;;4999701;28;20220;-86
2022/12/10 12:23:21;;;;;;;5.10;4.63;;;3.70;99.90;;;;;;4998782;28;20210;-85
2022/12/10 12:25:52;;;;;;;4.87;2.77;;;3.80;99.90;;;;;;4998644;28;20234;-85
2022/12/10 12:28:24;;;;;;;8.13;5.00;;;3.80;99.90;;;;;;5001716;28;20870;-86
2022/12/10 12:30:58;;;;;;;4.40;4.10;;;3.80;99.90;;;;;;5000384;28;20258;-86
2022/12/10 12:34:14;;;;;;;4.60;4.03;;;3.70;99.90;;;;;;4999615;28;20238;-85
2022/12/10 12:36:40;;;;;;;2.57;2.37;;;3.70;99.90;;;;;;5005250;28;20242;-85
2022/12/10 12:39:36;;;;;;;4.87;2.83;;;3.80;99.90;;;;;;4987317;28;20261;-86
2022/12/10 12:42:26;;;;;;;4.37;2.40;;;3.70;99.90;;;;;;5011932;28;20220;-87
2022/12/10 12:45:03;;;;;;;5.60;3.73;;;3.70;99.90;;;;;;5000541;28;20339;-85
2022/12/10 12:47:34;;;;;;;2.27;2.07;;;3.70;99.90;;;;;;4999042;28;20225;-87
2022/12/10 12:50:01;;;;;;;5.03;4.73;;;3.50;99.90;;;;;;4999708;28;20223;-86
2022/12/10 12:52:47;;;;;;;10.10;4.50;;;3.50;99.90;;;;;;5016086;28;20191;-85
2022/12/10 12:55:38;;;;;;;3.13;2.93;;;3.60;99.90;;;;;;4999543;28;20208;-85
2022/12/10 12:58:31;;;;;;;7.60;6.70;;;3.50;99.90;;;;;;5022256;28;20322;-85
2022/12/10 13:01:06;;;;;;;9.07;5.33;;;3.50;99.90;;;;;;4999506;28;20279;-84
2022/12/10 13:03:34;;;;;;;4.90;4.53;;;3.60;99.90;;;;;;5017391;28;20211;-86
2022/12/10 13:06:19;;;;;;;5.60;3.90;;;3.50;99.90;;;;;;4999556;28;20224;-84
2022/12/10 13:09:11;;;;;;;5.73;4.37;;;3.60;99.90;;;;;;5000040;28;20232;-86
2022/12/10 13:11:37;;;;;;;1.83;1.73;;;3.50;99.90;;;;;;4996997;28;20215;-85
2022/12/10 13:14:09;;;;;;;2.10;1.90;;;3.60;99.90;;;;;;5021344;28;20237;-83
2022/12/10 13:16:38;;;;;;;2.70;2.57;;;3.60;99.90;;;;;;5029130;28;20200;-83
2022/12/10 13:19:18;;;;;;;3.03;2.87;;;3.70;99.90;;;;;;5001680;28;20232;-88
2022/12/10 13:22:02;;;;;;;4.53;4.13;;;3.70;99.90;;;;;;5003714;28;20293;-83
2022/12/10 13:24:37;;;;;;;8.60;5.77;;;3.60;99.90;;;;;;5029821;28;20230;-83